createdAt,value
2022-09-13T00:02:39.126Z,98391.00
2022-09-13T00:05:27.225Z,98388.00
2022-09-13T00:08:15.659Z,98383.00
2022-09-13T00:11:03.910Z,98383.00
2022-09-13T00:13:52.661Z,98381.00
2022-09-13T00:16:40.258Z,98379.00
2022-09-13T00:19:27.662Z,98382.00
2022-09-13T00:22:15.137Z,98373.00
2022-09-13T00:25:07.710Z,98373.00
2022-09-13T00:27:55.229Z,98374.00
2022-09-13T00:30:42.654Z,98378.00
2022-09-13T00:33:30.286Z,98365.00
2022-09-13T00:36:18.028Z,98367.00
2022-09-13T00:39:05.602Z,98367.00
2022-09-13T00:41:53.304Z,98363.00
2022-09-13T00:45:07.314Z,98355.00
2022-09-13T00:48:11.339Z,98349.00
2022-09-13T00:50:59.021Z,98344.00
2022-09-13T00:53:54.590Z,98337.00
2022-09-13T00:56:49.034Z,98344.00
2022-09-13T00:59:51.880Z,98339.00
2022-09-13T01:02:51.980Z,98334.00
2022-09-13T01:05:47.856Z,98324.00
2022-09-13T01:08:40.394Z,98325.00
2022-09-13T01:11:39.379Z,98324.00
2022-09-13T01:14:28.496Z,98325.00
2022-09-13T01:17:15.930Z,98322.00
2022-09-13T01:20:06.150Z,98327.00
2022-09-13T01:23:16.309Z,98325.00
2022-09-13T01:26:28.180Z,98321.00
2022-09-13T01:29:37.434Z,98316.00
2022-09-13T01:33:09.639Z,98327.00
2022-09-13T01:36:19.394Z,98315.00
2022-09-13T01:39:55.684Z,98315.00
2022-09-13T01:43:08.039Z,98306.00
2022-09-13T01:46:38.224Z,98305.00
2022-09-13T01:49:53.540Z,98306.00
2022-09-13T01:52:56.091Z,98307.00
2022-09-13T01:55:57.936Z,98303.00
2022-09-13T01:59:01.386Z,98293.00
2022-09-13T02:02:10.650Z,98291.00
2022-09-13T02:05:15.225Z,98283.00
2022-09-13T02:08:13.075Z,98280.00
2022-09-13T02:11:17.424Z,98273.00
2022-09-13T02:14:32.115Z,98287.00
2022-09-13T02:17:28.596Z,98280.00
2022-09-13T02:20:31.127Z,98281.00
2022-09-13T02:23:38.070Z,98280.00
2022-09-13T02:26:29.319Z,98263.00
2022-09-13T02:29:21.213Z,98257.00
2022-09-13T02:32:26.482Z,98258.00
2022-09-13T02:35:22.939Z,98256.00
2022-09-13T02:38:24.022Z,98250.00
2022-09-13T02:41:18.179Z,98249.00
2022-09-13T02:44:24.181Z,98257.00
2022-09-13T02:47:39.951Z,98259.00
2022-09-13T02:51:08.365Z,98271.00
2022-09-13T02:54:10.856Z,98267.00
2022-09-13T02:57:27.415Z,98264.00
2022-09-13T03:00:15.102Z,98267.00
2022-09-13T03:03:09.129Z,98280.00
2022-09-13T03:05:56.892Z,98280.00
2022-09-13T03:08:44.401Z,98275.00
2022-09-13T03:11:53.129Z,98274.00
2022-09-13T03:15:44.235Z,98273.00
2022-09-13T03:19:07.301Z,98272.00
2022-09-13T03:22:44.384Z,98264.00
2022-09-13T03:26:00.884Z,98262.00
2022-09-13T03:29:18.886Z,98267.00
2022-09-13T03:32:45.109Z,98268.00
2022-09-13T03:35:42.531Z,98264.00
2022-09-13T03:38:55.406Z,98269.00
2022-09-13T03:41:51.620Z,98266.00
2022-09-13T03:44:42.645Z,98260.00
2022-09-13T03:47:36.549Z,98267.00
2022-09-13T03:50:27.013Z,98267.00
2022-09-13T03:53:23.596Z,98269.00
2022-09-13T03:56:20.537Z,98264.00
2022-09-13T03:59:08.299Z,98253.00
2022-09-13T04:01:55.815Z,98264.00
2022-09-13T04:04:45.510Z,98264.00
2022-09-13T04:07:33.455Z,98265.00
2022-09-13T04:10:22.028Z,98264.00
2022-09-13T04:13:09.651Z,98280.00
2022-09-13T04:16:05.524Z,98286.00
2022-09-13T04:18:53.009Z,98282.00
2022-09-13T04:21:40.540Z,98280.00
2022-09-13T04:24:31.295Z,98271.00
2022-09-13T04:27:18.831Z,98288.00
2022-09-13T04:30:07.290Z,98295.00
2022-09-13T04:32:57.256Z,98305.00
2022-09-13T04:35:44.895Z,98304.00
2022-09-13T04:38:32.790Z,98315.00
2022-09-13T04:41:20.339Z,98309.00
2022-09-13T04:44:07.913Z,98309.00
2022-09-13T04:46:55.899Z,98311.00
2022-09-13T04:49:43.405Z,98302.00
2022-09-13T04:52:30.921Z,98300.00
2022-09-13T04:55:18.510Z,98305.00
2022-09-13T04:58:06.291Z,98320.00
2022-09-13T05:00:56.919Z,98314.00
2022-09-13T05:03:44.645Z,98313.00
2022-09-13T05:06:32.230Z,98317.00
2022-09-13T05:09:19.759Z,98309.00
2022-09-13T05:12:07.534Z,98309.00
2022-09-13T05:14:54.944Z,98308.00
2022-09-13T05:17:42.494Z,98316.00
2022-09-13T05:20:29.930Z,98317.00
2022-09-13T05:23:17.448Z,98315.00
2022-09-13T05:26:07.405Z,98308.00
2022-09-13T05:28:55.030Z,98296.00
2022-09-13T05:31:43.870Z,98300.00
2022-09-13T05:34:31.287Z,98298.00
2022-09-13T05:37:19.341Z,98298.00
2022-09-13T05:40:11.501Z,98306.00
2022-09-13T05:42:59.913Z,98304.00
2022-09-13T05:45:47.476Z,98308.00
2022-09-13T05:48:36.529Z,98313.00
2022-09-13T05:51:24.080Z,98300.00
2022-09-13T05:54:14.757Z,98302.00
2022-09-13T05:57:02.175Z,98297.00
2022-09-13T05:59:49.606Z,98298.00
2022-09-13T06:02:37.213Z,98306.00
2022-09-13T06:05:28.643Z,98305.00
2022-09-13T06:08:18.882Z,98304.00
2022-09-13T06:11:10.351Z,98308.00
2022-09-13T06:13:57.877Z,98323.00
2022-09-13T06:16:45.416Z,98326.00
2022-09-13T06:19:32.879Z,98337.00
2022-09-13T06:22:20.435Z,98338.00
2022-09-13T06:25:09.620Z,98334.00
2022-09-13T06:27:57.121Z,98328.00
2022-09-13T06:30:44.975Z,98327.00
2022-09-13T06:33:36.636Z,98326.00
2022-09-13T06:36:24.905Z,98324.00
2022-09-13T06:39:12.700Z,98320.00
2022-09-13T06:42:00.889Z,98306.00
2022-09-13T06:44:48.711Z,98305.00
2022-09-13T06:47:36.186Z,98317.00
2022-09-13T06:50:26.442Z,98312.00
2022-09-13T06:53:14.060Z,98314.00
2022-09-13T06:56:18.190Z,98304.00
2022-09-13T06:59:11.747Z,98309.00
2022-09-13T07:01:59.229Z,98311.00
2022-09-13T07:04:46.754Z,98308.00
2022-09-13T07:07:34.225Z,98313.00
2022-09-13T07:10:21.716Z,98305.00
2022-09-13T07:13:09.824Z,98312.00
2022-09-13T07:15:57.702Z,98311.00
2022-09-13T07:18:45.932Z,98311.00
2022-09-13T07:21:35.702Z,98308.00
2022-09-13T07:24:24.152Z,98298.00
2022-09-13T07:27:12.944Z,98302.00
2022-09-13T07:30:00.349Z,98307.00
2022-09-13T07:32:47.785Z,98308.00
2022-09-13T07:35:35.190Z,98310.00
2022-09-13T07:38:22.589Z,98314.00
2022-09-13T07:41:14.421Z,98322.00
2022-09-13T07:44:03.094Z,98320.00
2022-09-13T07:46:50.525Z,98315.00
2022-09-13T07:49:37.980Z,98319.00
2022-09-13T07:52:25.739Z,98305.00
2022-09-13T07:55:13.305Z,98304.00
2022-09-13T07:58:00.774Z,98309.00
2022-09-13T08:00:48.370Z,98308.00
2022-09-13T08:03:37.762Z,98310.00
2022-09-13T08:06:27.901Z,98305.00
2022-09-13T08:09:16.485Z,98311.00
2022-09-13T08:12:04.014Z,98315.00
2022-09-13T08:14:51.425Z,98306.00
2022-09-13T08:17:38.855Z,98315.00
2022-09-13T08:20:26.254Z,98322.00
2022-09-13T08:23:14.589Z,98323.00
2022-09-13T08:26:03.754Z,98327.00
2022-09-13T08:29:05.049Z,98333.00
2022-09-13T08:31:52.636Z,98335.00
2022-09-13T08:34:40.069Z,98336.00
2022-09-13T08:37:27.740Z,98338.00
2022-09-13T08:40:16.881Z,98331.00
2022-09-13T08:43:35.185Z,98323.00
2022-09-13T08:47:27.236Z,98324.00
2022-09-13T08:50:23.645Z,98314.00
2022-09-13T08:53:31.940Z,98326.00
2022-09-13T08:56:41.589Z,98322.00
2022-09-13T08:59:56.175Z,98318.00
2022-09-13T09:03:02.831Z,98327.00
2022-09-13T09:05:52.595Z,98311.00
2022-09-13T09:08:52.805Z,98306.00
2022-09-13T09:11:42.993Z,98301.00
2022-09-13T09:14:42.625Z,98308.00
2022-09-13T09:18:12.315Z,98305.00
2022-09-13T09:21:04.316Z,98300.00
2022-09-13T09:23:54.845Z,98305.00
2022-09-13T09:26:42.311Z,98298.00
2022-09-13T09:29:37.180Z,98292.00
2022-09-13T09:32:52.685Z,98292.00
2022-09-13T09:36:13.386Z,98295.00
2022-09-13T09:39:00.950Z,98286.00
2022-09-13T09:41:48.823Z,98287.00
2022-09-13T09:44:39.834Z,98268.00
2022-09-13T09:47:43.210Z,98274.00
2022-09-13T09:50:53.521Z,98273.00
2022-09-13T09:53:47.537Z,98268.00
2022-09-13T09:56:36.453Z,98272.00
2022-09-13T09:59:33.967Z,98275.00
2022-09-13T10:02:22.716Z,98265.00
2022-09-13T10:05:14.406Z,98262.00
2022-09-13T10:08:06.958Z,98250.00
2022-09-13T10:10:57.664Z,98243.00
2022-09-13T10:14:03.524Z,98245.00
2022-09-13T10:17:27.969Z,98243.00
2022-09-13T10:20:15.339Z,98241.00
2022-09-13T10:23:14.919Z,98242.00
2022-09-13T10:26:26.329Z,98240.00
2022-09-13T10:29:18.854Z,98240.00
2022-09-13T10:32:09.729Z,98245.00
2022-09-13T10:35:15.914Z,98241.00
2022-09-13T10:38:03.460Z,98236.00
2022-09-13T10:40:50.940Z,98233.00
2022-09-13T10:43:39.007Z,98227.00
2022-09-13T10:46:36.370Z,98228.00
2022-09-13T10:49:47.693Z,98222.00
2022-09-13T10:52:49.812Z,98218.00
2022-09-13T10:55:40.891Z,98215.00
2022-09-13T10:58:28.393Z,98216.00
2022-09-13T11:02:06.169Z,98209.00
2022-09-13T11:05:19.832Z,98205.00
2022-09-13T11:08:57.656Z,98200.00
2022-09-13T11:12:26.876Z,98197.00
2022-09-13T11:16:06.050Z,98198.00
2022-09-13T11:19:11.427Z,98203.00
2022-09-13T11:22:46.029Z,98192.00
2022-09-13T11:26:02.746Z,98183.00
2022-09-13T11:29:39.341Z,98186.00
2022-09-13T11:32:50.600Z,98173.00
2022-09-13T11:36:14.655Z,98175.00
2022-09-13T11:39:09.139Z,98165.00
2022-09-13T11:42:40.749Z,98159.00
2022-09-13T11:45:33.538Z,98170.00
2022-09-13T11:49:00.945Z,98158.00
2022-09-13T11:52:20.750Z,98157.00
2022-09-13T11:55:35.090Z,98151.00
2022-09-13T11:58:32.974Z,98149.00
2022-09-13T12:01:40.414Z,98141.00
2022-09-13T12:04:42.229Z,98149.00
2022-09-13T12:07:44.166Z,98144.00
2022-09-13T12:11:21.394Z,98138.00
2022-09-13T12:14:18.119Z,98132.00
2022-09-13T12:17:21.494Z,98131.00
2022-09-13T12:20:32.929Z,98128.00
2022-09-13T12:23:44.860Z,98118.00
2022-09-13T12:26:56.210Z,98109.00
2022-09-13T12:29:56.709Z,98113.00
2022-09-13T12:32:46.493Z,98108.00
2022-09-13T12:36:01.865Z,98100.00
2022-09-13T12:39:26.689Z,98107.00
2022-09-13T12:42:52.653Z,98109.00
2022-09-13T12:46:23.303Z,98110.00
2022-09-13T12:50:36.530Z,98107.00
2022-09-13T12:53:29.192Z,98096.00
2022-09-13T12:57:02.254Z,98099.00
2022-09-13T13:00:31.274Z,98102.00
2022-09-13T13:03:20.291Z,98095.00
2022-09-13T13:06:23.839Z,98095.00
2022-09-13T13:09:41.206Z,98082.00
2022-09-13T13:12:38.449Z,98091.00
2022-09-13T13:15:25.820Z,98089.00
2022-09-13T13:18:45.064Z,98073.00
2022-09-13T13:21:41.045Z,98071.00
2022-09-13T13:24:28.449Z,98067.00
2022-09-13T13:27:47.551Z,98071.00
2022-09-13T13:30:53.090Z,98081.00
2022-09-13T13:33:53.309Z,98080.00
2022-09-13T13:36:41.085Z,98079.00
2022-09-13T13:39:28.694Z,98078.00
2022-09-13T13:42:39.683Z,98077.00
2022-09-13T13:45:28.355Z,98077.00
2022-09-13T13:48:16.077Z,98074.00
2022-09-13T13:51:23.574Z,98066.00
2022-09-13T13:54:54.140Z,98064.00
2022-09-13T13:58:19.670Z,98061.00
2022-09-13T14:01:11.759Z,98057.00
2022-09-13T14:04:47.324Z,98066.00
2022-09-13T14:07:46.470Z,98047.00
2022-09-13T14:11:20.080Z,98048.00
2022-09-13T14:14:35.099Z,98036.00
2022-09-13T14:17:40.748Z,98025.00
2022-09-13T14:20:28.530Z,98011.00
2022-09-13T14:23:19.943Z,98010.00
2022-09-13T14:26:07.945Z,98015.00
2022-09-13T14:28:55.509Z,98017.00
2022-09-13T14:31:51.047Z,98015.00
2022-09-13T14:34:39.604Z,98005.00
2022-09-13T14:37:31.303Z,98012.00
2022-09-13T14:40:27.811Z,98010.00
2022-09-13T14:43:23.189Z,98004.00
2022-09-13T14:46:31.654Z,98008.00
2022-09-13T14:49:30.534Z,98004.00
2022-09-13T14:52:26.567Z,98005.00
2022-09-13T14:55:20.414Z,98006.00
2022-09-13T14:58:26.693Z,98003.00
2022-09-13T15:01:20.521Z,98007.00
2022-09-13T15:04:08.281Z,98011.00
2022-09-13T15:07:20.945Z,98011.00
2022-09-13T15:10:30.039Z,98002.00
2022-09-13T15:13:17.574Z,98007.00
2022-09-13T15:16:32.276Z,98002.00
2022-09-13T15:19:30.121Z,97995.00
2022-09-13T15:22:24.554Z,97995.00
2022-09-13T15:25:27.739Z,98000.00
2022-09-13T15:28:34.773Z,98005.00
2022-09-13T15:31:25.984Z,98003.00
2022-09-13T15:34:21.814Z,98014.00
2022-09-13T15:37:15.358Z,98006.00
2022-09-13T15:40:18.929Z,98015.00
2022-09-13T15:43:07.222Z,98011.00
2022-09-13T15:45:57.124Z,98005.00
2022-09-13T15:49:08.591Z,98002.00
2022-09-13T15:51:59.688Z,98005.00
2022-09-13T15:54:51.084Z,98006.00
2022-09-13T15:57:38.596Z,98003.00
2022-09-13T16:00:28.381Z,97998.00
2022-09-13T16:03:15.870Z,98005.00
2022-09-13T16:06:03.400Z,98005.00
2022-09-13T16:08:50.892Z,97996.00
2022-09-13T16:12:06.164Z,97999.00
2022-09-13T16:14:54.770Z,97997.00
2022-09-13T16:17:42.995Z,97991.00
2022-09-13T16:20:30.602Z,97989.00
2022-09-13T16:23:18.284Z,97988.00
2022-09-13T16:26:06.323Z,97983.00
2022-09-13T16:28:53.825Z,97970.00
2022-09-13T16:31:41.972Z,97977.00
2022-09-13T16:34:29.585Z,97970.00
2022-09-13T16:37:19.436Z,97967.00
2022-09-13T16:40:10.270Z,97974.00
2022-09-13T16:43:00.906Z,97972.00
2022-09-13T16:45:50.561Z,97969.00
2022-09-13T16:48:38.094Z,97976.00
2022-09-13T16:51:26.344Z,97968.00
2022-09-13T16:54:14.050Z,97973.00
2022-09-13T16:57:04.341Z,97976.00
2022-09-13T16:59:53.126Z,97973.00
2022-09-13T17:02:40.774Z,97970.00
2022-09-13T17:05:28.419Z,97975.00
2022-09-13T17:08:15.965Z,97973.00
2022-09-13T17:11:14.626Z,97965.00
2022-09-13T17:14:05.160Z,97962.00
2022-09-13T17:16:56.594Z,97965.00
2022-09-13T17:19:45.119Z,97967.00
2022-09-13T17:22:32.559Z,97968.00
2022-09-13T17:25:20.972Z,97959.00
2022-09-13T17:28:08.439Z,97959.00
2022-09-13T17:30:58.461Z,97957.00
2022-09-13T17:33:50.207Z,97953.00
2022-09-13T17:36:40.814Z,97949.00
2022-09-13T17:39:28.269Z,97954.00
2022-09-13T17:42:17.336Z,97955.00
2022-09-13T17:45:06.931Z,97959.00
2022-09-13T17:47:56.916Z,97955.00
2022-09-13T17:50:44.336Z,97947.00
2022-09-13T17:53:32.531Z,97950.00
2022-09-13T17:56:38.892Z,97965.00
2022-09-13T17:59:26.644Z,97960.00
2022-09-13T18:02:14.192Z,97960.00
2022-09-13T18:05:05.731Z,97958.00
2022-09-13T18:07:54.549Z,97961.00
2022-09-13T18:11:03.788Z,97954.00
2022-09-13T18:13:50.861Z,97952.00
2022-09-13T18:16:38.319Z,97948.00
2022-09-13T18:19:44.695Z,97951.00
2022-09-13T18:22:33.205Z,97956.00
2022-09-13T18:25:23.727Z,97949.00
2022-09-13T18:28:11.269Z,97950.00
2022-09-13T18:31:02.901Z,97948.00
2022-09-13T18:34:00.271Z,97960.00
2022-09-13T18:36:48.110Z,97971.00
2022-09-13T18:39:36.515Z,97966.00
2022-09-13T18:42:23.964Z,97959.00
2022-09-13T18:45:11.499Z,97960.00
2022-09-13T18:47:58.985Z,97948.00
2022-09-13T18:50:46.605Z,97947.00
2022-09-13T18:53:35.664Z,97952.00
2022-09-13T18:56:24.721Z,97960.00
2022-09-13T18:59:12.716Z,97963.00
2022-09-13T19:02:00.350Z,97969.00
2022-09-13T19:04:48.755Z,97961.00
2022-09-13T19:07:36.255Z,97947.00
2022-09-13T19:10:23.939Z,97951.00
2022-09-13T19:13:11.944Z,97950.00
2022-09-13T19:16:12.325Z,97951.00
2022-09-13T19:19:02.801Z,97941.00
2022-09-13T19:21:50.687Z,97948.00
2022-09-13T19:24:38.494Z,97945.00
2022-09-13T19:27:26.139Z,97956.00
2022-09-13T19:30:13.729Z,97956.00
2022-09-13T19:33:01.303Z,97945.00
2022-09-13T19:35:48.764Z,97944.00
2022-09-13T19:38:37.420Z,97947.00
2022-09-13T19:41:28.449Z,97945.00
2022-09-13T19:44:16.159Z,97939.00
2022-09-13T19:47:53.255Z,97942.00
2022-09-13T19:50:13.226Z,97942.00
2022-09-13T19:53:00.844Z,97946.00
2022-09-13T19:55:49.935Z,97943.00
2022-09-13T19:58:37.960Z,97944.00
2022-09-13T20:01:31.779Z,97945.00
2022-09-13T20:04:23.687Z,97936.00
2022-09-13T20:07:13.408Z,97932.00
2022-09-13T20:10:01.538Z,97934.00
2022-09-13T20:12:50.767Z,97931.00
2022-09-13T20:15:39.139Z,97922.00
2022-09-13T20:18:30.120Z,97926.00
2022-09-13T20:21:18.424Z,97923.00
2022-09-13T20:24:07.951Z,97921.00
2022-09-13T20:26:55.484Z,97916.00
2022-09-13T20:29:42.950Z,97913.00
2022-09-13T20:32:31.060Z,97916.00
2022-09-13T20:35:18.455Z,97902.00
2022-09-13T20:38:06.635Z,97906.00
2022-09-13T20:40:54.216Z,97910.00
2022-09-13T20:43:42.263Z,97915.00
2022-09-13T20:46:31.801Z,97920.00
2022-09-13T20:49:19.899Z,97923.00
2022-09-13T20:52:07.289Z,97917.00
2022-09-13T20:54:54.764Z,97923.00
2022-09-13T20:57:42.831Z,97916.00
2022-09-13T21:00:30.226Z,97913.00
2022-09-13T21:03:17.721Z,97910.00
2022-09-13T21:06:07.380Z,97916.00
2022-09-13T21:08:56.483Z,97918.00
2022-09-13T21:11:44.022Z,97916.00
2022-09-13T21:14:32.249Z,97903.00
2022-09-13T21:17:20.505Z,97907.00
2022-09-13T21:20:08.380Z,97905.00
2022-09-13T21:22:55.766Z,97908.00
2022-09-13T21:25:43.140Z,97905.00
2022-09-13T21:28:31.111Z,97903.00
2022-09-13T21:31:25.619Z,97905.00
2022-09-13T21:34:18.568Z,97908.00
2022-09-13T21:37:06.064Z,97908.00
2022-09-13T21:39:53.504Z,97913.00
2022-09-13T21:42:40.875Z,97914.00
2022-09-13T21:45:28.390Z,97913.00
2022-09-13T21:48:15.799Z,97902.00
2022-09-13T21:51:17.060Z,97900.00
2022-09-13T21:54:09.070Z,97887.00
2022-09-13T21:56:56.484Z,97886.00
2022-09-13T21:59:44.099Z,97896.00
2022-09-13T22:02:31.857Z,97891.00
2022-09-13T22:05:19.444Z,97892.00
2022-09-13T22:08:06.834Z,97888.00
2022-09-13T22:10:54.286Z,97889.00
2022-09-13T22:13:47.712Z,97884.00
2022-09-13T22:16:39.283Z,97887.00
2022-09-13T22:19:28.184Z,97881.00
2022-09-13T22:22:15.555Z,97885.00
2022-09-13T22:25:03.075Z,97879.00
2022-09-13T22:27:50.485Z,97872.00
2022-09-13T22:30:37.996Z,97878.00
2022-09-13T22:33:25.441Z,97885.00
2022-09-13T22:36:15.944Z,97879.00
2022-09-13T22:39:05.201Z,97880.00
2022-09-13T22:41:52.601Z,97881.00
2022-09-13T22:44:40.048Z,97871.00
2022-09-13T22:47:28.287Z,97870.00
2022-09-13T22:50:15.865Z,97876.00
2022-09-13T22:53:03.600Z,97875.00
2022-09-13T22:55:51.421Z,97876.00
2022-09-13T22:58:39.595Z,97869.00
2022-09-13T23:01:29.593Z,97866.00
2022-09-13T23:04:17.933Z,97876.00
2022-09-13T23:07:05.420Z,97857.00
2022-09-13T23:09:52.860Z,97860.00
2022-09-13T23:12:40.340Z,97858.00
2022-09-13T23:15:27.775Z,97859.00
2022-09-13T23:18:15.236Z,97862.00
2022-09-13T23:21:02.976Z,97862.00
2022-09-13T23:23:50.891Z,97858.00
2022-09-13T23:26:38.903Z,97847.00
2022-09-13T23:29:26.347Z,97843.00
2022-09-13T23:32:13.830Z,97841.00
2022-09-13T23:35:01.346Z,97835.00
2022-09-13T23:37:49.095Z,97828.00
2022-09-13T23:40:36.735Z,97824.00
2022-09-13T23:43:25.307Z,97826.00
2022-09-13T23:46:13.521Z,97823.00
2022-09-13T23:49:01.111Z,97832.00
2022-09-13T23:51:49.326Z,97841.00
2022-09-13T23:54:36.775Z,97846.00
2022-09-13T23:57:24.345Z,97844.00
